Lima, OH

7:30 AM EDT on August 21, 2017 (GMT -0400)
Lima Allen County | | Change Station

Elev 974 ft 40.71 °N, 84.03 °W | Updated 37 minutes ago

Partly Cloudy
Partly Cloudy
69 °F
Feels Like 69 °F
N
5
Wind Variable Wind from Variable

Today
High -- | Low -- °F
--% Chance of Precip.
Yesterday
High -- | Low -- °F
Precip. -- in
Pressure 30.12 in
Visibility 10.0 miles
Clouds Few 11000 ft
Dew Point 66 °F
Humidity 90%
Rainfall 0.00 in
Snow Depth Not available.
6:52 AM 8:24 PM
Waning Crescent, 0% visible
METAR KAOH 211053Z AUTO VRB04KT 10SM FEW110 21/19 A3015 RMK AO2 RAB0957E33 PRESRR SLP200 P0000 T02060189
Pressure 30.12 in
Visibility 10.0 miles
Clouds Few 11000 ft
Dew Point 66 °F
Humidity 90%
Rainfall 0.00 in
Snow Depth Not available.
6:52 AM 8:24 PM
Waning Crescent, 0% visible
METAR KAOH 211053Z AUTO VRB04KT 10SM FEW110 21/19 A3015 RMK AO2 RAB0957E33 PRESRR SLP200 P0000 T02060189

Get Severe Weather Alerts

Thanks for signing up!

Be on the lookout for a verification email in your inbox.

You'll start receiving the daily forecast at 6 AM.

×

10-Day Weather Forecast

Almanac

Astronomy

Aug. 21, 2017 Rise Set
Actual Time
Civil Twilight
Nautical Twilight
Astronomical Twilight
Moon
Length of Visible Light
Length of Day
Tomorrow will be .
, % of the Moon is Illuminated

Today's Extremes

State Highs State Lows

Community

WunderPhotos

Category 6

Welcome to Category 6. This is the collective home for Weather Underground's featured writeups by Dr. Jeff Masters (right), Bob Henson (left), Chris Burt, and other regular contributors.

Nearby

Air Quality

  Air Quality AQ Index Pollutant
Not available.

Snow Depth

Station Depth Elevation

Earthquake Activity

City Distance Mag. Time & Date
Minimum magnitude displayed is 2.5.

Coastal Water Temperatures

Place Temperature

Stations

Nearby Weather Stations

Station Location Temp. Windchill Dew Point Humidity Wind Precip. Elev Updated Type
                   

Watches & Warnings

There are currently no watches in effect.